sensor_id;sensor_type;location;lat;lon;timestamp;pressure;altitude;pressure_sealevel;temperature;humidity
37764;BME280;23602;51.084;7.090;2023-04-25T00:00:15;99567.31;;;3.74;100.00
37764;BME280;23602;51.084;7.090;2023-04-25T00:02:44;99565.84;;;3.71;100.00
37764;BME280;23602;51.084;7.090;2023-04-25T00:05:11;99562.91;;;3.66;100.00
37764;BME280;23602;51.084;7.090;2023-04-25T00:07:37;99563.09;;;3.65;100.00
37764;BME280;23602;51.084;7.090;2023-04-25T00:10:03;99566.75;;;3.64;100.00
37764;BME280;23602;51.084;7.090;2023-04-25T00:12:28;99564.09;;;3.64;100.00
37764;BME280;23602;51.084;7.090;2023-04-25T00:14:54;99573.44;;;3.60;100.00
37764;BME280;23602;51.084;7.090;2023-04-25T00:17:22;99565.66;;;3.58;100.00
37764;BME280;23602;51.084;7.090;2023-04-25T00:19:52;99571.78;;;3.59;100.00
37764;BME280;23602;51.084;7.090;2023-04-25T00:22:23;99566.19;;;3.54;100.00
37764;BME280;23602;51.084;7.090;2023-04-25T00:24:49;99572.31;;;3.54;100.00
37764;BME280;23602;51.084;7.090;2023-04-25T00:27:15;99569.84;;;3.53;100.00
37764;BME280;23602;51.084;7.090;2023-04-25T00:29:40;99572.22;;;3.48;100.00
37764;BME280;23602;51.084;7.090;2023-04-25T00:32:06;99571.59;;;3.46;100.00
37764;BME280;23602;51.084;7.090;2023-04-25T00:34:34;99561.59;;;3.48;100.00
37764;BME280;23602;51.084;7.090;2023-04-25T00:37:00;99577.34;;;3.49;100.00
37764;BME280;23602;51.084;7.090;2023-04-25T00:39:27;99574.41;;;3.44;100.00
37764;BME280;23602;51.084;7.090;2023-04-25T00:41:52;99574.75;;;3.41;100.00
37764;BME280;23602;51.084;7.090;2023-04-25T00:44:19;99574.94;;;3.40;100.00
37764;BME280;23602;51.084;7.090;2023-04-25T00:46:45;99584.25;;;3.36;100.00
37764;BME280;23602;51.084;7.090;2023-04-25T00:49:12;99587.38;;;3.39;100.00
37764;BME280;23602;51.084;7.090;2023-04-25T00:51:40;99592.00;;;3.45;100.00
37764;BME280;23602;51.084;7.090;2023-04-25T00:54:06;99597.75;;;3.49;100.00
37764;BME280;23602;51.084;7.090;2023-04-25T00:56:31;99591.75;;;3.55;100.00
37764;BME280;23602;51.084;7.090;2023-04-25T00:58:56;99591.41;;;3.58;100.00
37764;BME280;23602;51.084;7.090;2023-04-25T01:01:23;99592.81;;;3.68;100.00
37764;BME280;23602;51.084;7.090;2023-04-25T01:03:48;99586.66;;;3.68;100.00
37764;BME280;23602;51.084;7.090;2023-04-25T01:06:14;99598.22;;;3.75;100.00
37764;BME280;23602;51.084;7.090;2023-04-25T01:08:40;99594.03;;;3.80;100.00
37764;BME280;23602;51.084;7.090;2023-04-25T01:11:05;99601.81;;;3.82;100.00
37764;BME280;23602;51.084;7.090;2023-04-25T01:13:31;99595.78;;;3.88;100.00
37764;BME280;23602;51.084;7.090;2023-04-25T01:15:57;99606.78;;;3.85;100.00
37764;BME280;23602;51.084;7.090;2023-04-25T01:18:22;99612.91;;;3.86;100.00
37764;BME280;23602;51.084;7.090;2023-04-25T01:20:49;99612.03;;;3.93;100.00
37764;BME280;23602;51.084;7.090;2023-04-25T01:23:15;99617.25;;;4.01;100.00
37764;BME280;23602;51.084;7.090;2023-04-25T01:25:41;99619.84;;;4.09;100.00
37764;BME280;23602;51.084;7.090;2023-04-25T01:28:09;99621.13;;;4.13;100.00
37764;BME280;23602;51.084;7.090;2023-04-25T01:30:35;99621.41;;;4.18;100.00
37764;BME280;23602;51.084;7.090;2023-04-25T01:33:01;99617.38;;;4.22;100.00
37764;BME280;23602;51.084;7.090;2023-04-25T01:35:29;99618.19;;;4.23;100.00
37764;BME280;23602;51.084;7.090;2023-04-25T01:37:59;99624.34;;;4.23;100.00
37764;BME280;23602;51.084;7.090;2023-04-25T01:40:25;99626.09;;;4.31;100.00
37764;BME280;23602;51.084;7.090;2023-04-25T01:42:52;99629.41;;;4.33;100.00
37764;BME280;23602;51.084;7.090;2023-04-25T01:45:20;99629.69;;;4.38;100.00
37764;BME280;23602;51.084;7.090;2023-04-25T01:47:45;99633.81;;;4.40;100.00
37764;BME280;23602;51.084;7.090;2023-04-25T01:50:14;99643.09;;;4.44;100.00
37764;BME280;23602;51.084;7.090;2023-04-25T01:52:39;99644.38;;;4.48;100.00
37764;BME280;23602;51.084;7.090;2023-04-25T01:55:05;99645.63;;;4.53;100.00
37764;BME280;23602;51.084;7.090;2023-04-25T01:57:30;99646.94;;;4.57;100.00
37764;BME280;23602;51.084;7.090;2023-04-25T01:59:59;99644.91;;;4.59;100.00
37764;BME280;23602;51.084;7.090;2023-04-25T02:02:25;99654.72;;;4.58;100.00
37764;BME280;23602;51.084;7.090;2023-04-25T02:04:51;99652.91;;;4.59;100.00
37764;BME280;23602;51.084;7.090;2023-04-25T02:07:20;99645.75;;;4.59;100.00
37764;BME280;23602;51.084;7.090;2023-04-25T02:09:45;99648.56;;;4.58;100.00
37764;BME280;23602;51.084;7.090;2023-04-25T02:12:10;99645.28;;;4.56;100.00
37764;BME280;23602;51.084;7.090;2023-04-25T02:14:36;99640.50;;;4.51;100.00
37764;BME280;23602;51.084;7.090;2023-04-25T02:17:01;99651.50;;;4.48;100.00
37764;BME280;23602;51.084;7.090;2023-04-25T02:19:27;99648.03;;;4.47;100.00
37764;BME280;23602;51.084;7.090;2023-04-25T02:21:52;99644.09;;;4.43;100.00
37764;BME280;23602;51.084;7.090;2023-04-25T02:24:21;99654.94;;;4.42;100.00
37764;BME280;23602;51.084;7.090;2023-04-25T02:26:46;99650.03;;;4.45;100.00
37764;BME280;23602;51.084;7.090;2023-04-25T02:29:12;99650.53;;;4.49;100.00
37764;BME280;23602;51.084;7.090;2023-04-25T02:31:37;99649.34;;;4.52;100.00
37764;BME280;23602;51.084;7.090;2023-04-25T02:34:03;99648.56;;;4.58;100.00
37764;BME280;23602;51.084;7.090;2023-04-25T02:36:29;99642.72;;;4.62;100.00
37764;BME280;23602;51.084;7.090;2023-04-25T02:38:57;99644.63;;;4.68;100.00
37764;BME280;23602;51.084;7.090;2023-04-25T02:41:22;99645.09;;;4.72;100.00
37764;BME280;23602;51.084;7.090;2023-04-25T02:43:50;99645.38;;;4.77;100.00
37764;BME280;23602;51.084;7.090;2023-04-25T02:46:15;99647.84;;;4.78;100.00
37764;BME280;23602;51.084;7.090;2023-04-25T02:48:41;99655.03;;;4.78;100.00
37764;BME280;23602;51.084;7.090;2023-04-25T02:51:06;99648.03;;;4.77;100.00
37764;BME280;23602;51.084;7.090;2023-04-25T02:53:35;99645.19;;;4.78;100.00
37764;BME280;23602;51.084;7.090;2023-04-25T02:56:00;99650.16;;;4.81;100.00
37764;BME280;23602;51.084;7.090;2023-04-25T02:58:25;99648.31;;;4.82;100.00
37764;BME280;23602;51.084;7.090;2023-04-25T03:00:50;99643.63;;;4.84;100.00
37764;BME280;23602;51.084;7.090;2023-04-25T03:03:16;99644.94;;;4.88;100.00
37764;BME280;23602;51.084;7.090;2023-04-25T03:05:47;99643.91;;;4.89;100.00
37764;BME280;23602;51.084;7.090;2023-04-25T03:08:12;99649.06;;;4.90;100.00
37764;BME280;23602;51.084;7.090;2023-04-25T03:10:45;99648.84;;;4.92;100.00
37764;BME280;23602;51.084;7.090;2023-04-25T03:13:10;99637.75;;;4.88;100.00
37764;BME280;23602;51.084;7.090;2023-04-25T03:15:36;99639.59;;;4.88;100.00
37764;BME280;23602;51.084;7.090;2023-04-25T03:18:04;99642.25;;;4.88;100.00
37764;BME280;23602;51.084;7.090;2023-04-25T03:20:30;99640.66;;;4.93;100.00
37764;BME280;23602;51.084;7.090;2023-04-25T03:22:55;99637.84;;;4.95;100.00
37764;BME280;23602;51.084;7.090;2023-04-25T03:25:21;99636.19;;;4.94;100.00
37764;BME280;23602;51.084;7.090;2023-04-25T03:27:46;99628.03;;;4.95;100.00
37764;BME280;23602;51.084;7.090;2023-04-25T03:30:11;99634.34;;;4.94;100.00
37764;BME280;23602;51.084;7.090;2023-04-25T03:32:37;99640.50;;;4.95;100.00
37764;BME280;23602;51.084;7.090;2023-04-25T03:35:02;99640.50;;;4.95;100.00
37764;BME280;23602;51.084;7.090;2023-04-25T03:37:28;99638.84;;;4.94;100.00
37764;BME280;23602;51.084;7.090;2023-04-25T03:39:53;99632.50;;;4.95;100.00
37764;BME280;23602;51.084;7.090;2023-04-25T03:42:19;99642.13;;;4.96;100.00
37764;BME280;23602;51.084;7.090;2023-04-25T03:44:44;99644.78;;;4.96;100.00
37764;BME280;23602;51.084;7.090;2023-04-25T03:47:10;99636.81;;;4.96;100.00
37764;BME280;23602;51.084;7.090;2023-04-25T03:49:36;99646.25;;;4.98;100.00
37764;BME280;23602;51.084;7.090;2023-04-25T03:52:02;99642.97;;;4.96;100.00
37764;BME280;23602;51.084;7.090;2023-04-25T03:54:27;99648.91;;;4.98;100.00
37764;BME280;23602;51.084;7.090;2023-04-25T03:56:52;99646.09;;;5.00;100.00
37764;BME280;23602;51.084;7.090;2023-04-25T03:59:18;99640.56;;;5.01;100.00
37764;BME280;23602;51.084;7.090;2023-04-25T04:01:44;99643.44;;;5.00;100.00
37764;BME280;23602;51.084;7.090;2023-04-25T04:04:10;99647.47;;;4.96;100.00
37764;BME280;23602;51.084;7.090;2023-04-25T04:06:35;99654.53;;;5.03;100.00
37764;BME280;23602;51.084;7.090;2023-04-25T04:09:01;99654.97;;;5.07;100.00
37764;BME280;23602;51.084;7.090;2023-04-25T04:11:26;99653.78;;;5.09;100.00
37764;BME280;23602;51.084;7.090;2023-04-25T04:13:52;99659.94;;;5.10;100.00
37764;BME280;23602;51.084;7.090;2023-04-25T04:16:17;99664.06;;;5.13;100.00
37764;BME280;23602;51.084;7.090;2023-04-25T04:18:44;99669.66;;;5.18;100.00
37764;BME280;23602;51.084;7.090;2023-04-25T04:21:10;99671.13;;;5.20;100.00
37764;BME280;23602;51.084;7.090;2023-04-25T04:23:35;99667.47;;;5.21;100.00
37764;BME280;23602;51.084;7.090;2023-04-25T04:26:02;99673.06;;;5.26;100.00
37764;BME280;23602;51.084;7.090;2023-04-25T04:28:30;99669.38;;;5.27;100.00
37764;BME280;23602;51.084;7.090;2023-04-25T04:30:58;99664.50;;;5.31;100.00
37764;BME280;23602;51.084;7.090;2023-04-25T04:33:23;99665.97;;;5.33;100.00
37764;BME280;23602;51.084;7.090;2023-04-25T04:35:50;99665.13;;;5.33;100.00
37764;BME280;23602;51.084;7.090;2023-04-25T04:38:18;99670.09;;;5.36;100.00
37764;BME280;23602;51.084;7.090;2023-04-25T04:40:44;99672.13;;;5.34;100.00
37764;BME280;23602;51.084;7.090;2023-04-25T04:43:10;99675.59;;;5.34;100.00
37764;BME280;23602;51.084;7.090;2023-04-25T04:45:35;99676.63;;;5.33;100.00
37764;BME280;23602;51.084;7.090;2023-04-25T04:48:05;99682.84;;;5.40;100.00
37764;BME280;23602;51.084;7.090;2023-04-25T04:50:31;99682.47;;;5.43;100.00
37764;BME280;23602;51.084;7.090;2023-04-25T04:52:57;99681.28;;;5.46;100.00
37764;BME280;23602;51.084;7.090;2023-04-25T04:55:23;99693.03;;;5.51;100.00
37764;BME280;23602;51.084;7.090;2023-04-25T04:57:48;99697.59;;;5.57;100.00
37764;BME280;23602;51.084;7.090;2023-04-25T05:00:15;99691.06;;;5.60;100.00
37764;BME280;23602;51.084;7.090;2023-04-25T05:02:43;99692.09;;;5.59;100.00
37764;BME280;23602;51.084;7.090;2023-04-25T05:05:08;99698.66;;;5.63;100.00
37764;BME280;23602;51.084;7.090;2023-04-25T05:07:33;99704.47;;;5.66;100.00
37764;BME280;23602;51.084;7.090;2023-04-25T05:09:59;99700.75;;;5.67;100.00
37764;BME280;23602;51.084;7.090;2023-04-25T05:12:24;99699.31;;;5.65;100.00
37764;BME280;23602;51.084;7.090;2023-04-25T05:14:49;99703.00;;;5.64;100.00
37764;BME280;23602;51.084;7.090;2023-04-25T05:17:15;99702.66;;;5.52;100.00
37764;BME280;23602;51.084;7.090;2023-04-25T05:19:40;99698.25;;;5.45;100.00
37764;BME280;23602;51.084;7.090;2023-04-25T05:22:06;99706.00;;;5.40;100.00
37764;BME280;23602;51.084;7.090;2023-04-25T05:24:31;99706.56;;;5.35;100.00
37764;BME280;23602;51.084;7.090;2023-04-25T05:26:56;99707.75;;;5.33;100.00
37764;BME280;23602;51.084;7.090;2023-04-25T05:29:22;99717.94;;;5.29;100.00
37764;BME280;23602;51.084;7.090;2023-04-25T05:31:47;99723.66;;;5.26;100.00
37764;BME280;23602;51.084;7.090;2023-04-25T05:34:13;99727.34;;;5.25;100.00
37764;BME280;23602;51.084;7.090;2023-04-25T05:36:39;99723.66;;;5.26;100.00
37764;BME280;23602;51.084;7.090;2023-04-25T05:39:05;99724.09;;;5.30;100.00
37764;BME280;23602;51.084;7.090;2023-04-25T05:41:31;99728.06;;;5.34;100.00
37764;BME280;23602;51.084;7.090;2023-04-25T05:43:56;99728.50;;;5.37;100.00
37764;BME280;23602;51.084;7.090;2023-04-25T05:46:22;99736.75;;;5.42;100.00
37764;BME280;23602;51.084;7.090;2023-04-25T05:48:48;99725.09;;;5.43;100.00
37764;BME280;23602;51.084;7.090;2023-04-25T05:51:13;99736.19;;;5.47;100.00
37764;BME280;23602;51.084;7.090;2023-04-25T05:53:38;99744.66;;;5.50;100.00
37764;BME280;23602;51.084;7.090;2023-04-25T05:56:06;99743.72;;;5.58;100.00
37764;BME280;23602;51.084;7.090;2023-04-25T05:58:31;99741.78;;;5.66;100.00
37764;BME280;23602;51.084;7.090;2023-04-25T06:00:57;99746.53;;;5.71;100.00
37764;BME280;23602;51.084;7.090;2023-04-25T06:03:23;99740.63;;;5.75;100.00
37764;BME280;23602;51.084;7.090;2023-04-25T06:05:49;99749.94;;;5.80;100.00
37764;BME280;23602;51.084;7.090;2023-04-25T06:08:14;99757.19;;;5.86;100.00
37764;BME280;23602;51.084;7.090;2023-04-25T06:10:40;99748.44;;;5.92;100.00
37764;BME280;23602;51.084;7.090;2023-04-25T06:13:06;99751.38;;;5.97;100.00
37764;BME280;23602;51.084;7.090;2023-04-25T06:15:31;99752.47;;;6.02;100.00
37764;BME280;23602;51.084;7.090;2023-04-25T06:18:06;99747.63;;;6.12;100.00
37764;BME280;23602;51.084;7.090;2023-04-25T06:20:32;99738.50;;;6.28;100.00
37764;BME280;23602;51.084;7.090;2023-04-25T06:22:57;99729.00;;;6.40;100.00
37764;BME280;23602;51.084;7.090;2023-04-25T06:25:22;99720.28;;;6.53;100.00
37764;BME280;23602;51.084;7.090;2023-04-25T06:27:48;99716.63;;;6.60;100.00
37764;BME280;23602;51.084;7.090;2023-04-25T06:30:13;99718.13;;;6.69;100.00
37764;BME280;23602;51.084;7.090;2023-04-25T06:32:39;99722.31;;;6.78;100.00
37764;BME280;23602;51.084;7.090;2023-04-25T06:35:04;99711.03;;;6.83;100.00
37764;BME280;23602;51.084;7.090;2023-04-25T06:37:30;99697.69;;;6.83;100.00
37764;BME280;23602;51.084;7.090;2023-04-25T06:39:55;99702.47;;;6.94;100.00
37764;BME280;23602;51.084;7.090;2023-04-25T06:42:21;99691.59;;;7.02;100.00
37764;BME280;23602;51.084;7.090;2023-04-25T06:44:46;99694.97;;;7.17;100.00
37764;BME280;23602;51.084;7.090;2023-04-25T06:47:12;99692.56;;;7.29;100.00
37764;BME280;23602;51.084;7.090;2023-04-25T06:49:37;99688.50;;;7.46;100.00
37764;BME280;23602;51.084;7.090;2023-04-25T06:52:03;99686.09;;;7.57;100.00
37764;BME280;23602;51.084;7.090;2023-04-25T06:54:29;99686.31;;;7.62;100.00
37764;BME280;23602;51.084;7.090;2023-04-25T06:56:55;99676.63;;;7.68;100.00
37764;BME280;23602;51.084;7.090;2023-04-25T06:59:20;99681.81;;;7.76;100.00
37764;BME280;23602;51.084;7.090;2023-04-25T07:01:48;99691.09;;;7.87;100.00
37764;BME280;23602;51.084;7.090;2023-04-25T07:04:13;99696.22;;;7.82;100.00
37764;BME280;23602;51.084;7.090;2023-04-25T07:06:39;99700.34;;;7.84;100.00
37764;BME280;23602;51.084;7.090;2023-04-25T07:09:10;99702.59;;;7.74;100.00
37764;BME280;23602;51.084;7.090;2023-04-25T07:11:36;99695.63;;;7.80;100.00
37764;BME280;23602;51.084;7.090;2023-04-25T07:14:23;99693.97;;;7.85;100.00
37764;BME280;23602;51.084;7.090;2023-04-25T07:16:56;99698.69;;;7.83;100.00
37764;BME280;23602;51.084;7.090;2023-04-25T07:19:22;99693.16;;;7.85;100.00
37764;BME280;23602;51.084;7.090;2023-04-25T07:21:48;99698.91;;;7.75;100.00
37764;BME280;23602;51.084;7.090;2023-04-25T07:24:14;99710.00;;;7.72;100.00
37764;BME280;23602;51.084;7.090;2023-04-25T07:26:46;99718.19;;;7.64;100.00
37764;BME280;23602;51.084;7.090;2023-04-25T07:29:12;99714.50;;;7.72;100.00
37764;BME280;23602;51.084;7.090;2023-04-25T07:31:37;99711.63;;;7.73;100.00
37764;BME280;23602;51.084;7.090;2023-04-25T07:34:03;99713.28;;;7.81;100.00
37764;BME280;23602;51.084;7.090;2023-04-25T07:36:28;99711.47;;;7.94;100.00
37764;BME280;23602;51.084;7.090;2023-04-25T07:38:54;99712.94;;;7.90;100.00
37764;BME280;23602;51.084;7.090;2023-04-25T07:41:19;99711.91;;;7.98;100.00
37764;BME280;23602;51.084;7.090;2023-04-25T07:43:45;99702.66;;;8.20;100.00
37764;BME280;23602;51.084;7.090;2023-04-25T07:46:10;99709.50;;;8.42;100.00
37764;BME280;23602;51.084;7.090;2023-04-25T07:48:36;99708.44;;;8.76;100.00
37764;BME280;23602;51.084;7.090;2023-04-25T07:51:01;99709.63;;;8.93;100.00
37764;BME280;23602;51.084;7.090;2023-04-25T07:53:26;99707.72;;;9.13;100.00
37764;BME280;23602;51.084;7.090;2023-04-25T07:55:52;99710.63;;;9.12;100.00
37764;BME280;23602;51.084;7.090;2023-04-25T07:58:20;99715.31;;;9.29;100.00
37764;BME280;23602;51.084;7.090;2023-04-25T08:00:47;99712.81;;;9.34;100.00
37764;BME280;23602;51.084;7.090;2023-04-25T08:03:14;99715.41;;;9.54;100.00
37764;BME280;23602;51.084;7.090;2023-04-25T08:08:31;99718.84;;;10.05;100.00
37764;BME280;23602;51.084;7.090;2023-04-25T08:10:56;99728.94;;;10.10;100.00
37764;BME280;23602;51.084;7.090;2023-04-25T08:13:22;99729.28;;;9.89;100.00
37764;BME280;23602;51.084;7.090;2023-04-25T08:15:47;99731.75;;;9.52;100.00
37764;BME280;23602;51.084;7.090;2023-04-25T08:18:13;99747.06;;;9.26;100.00
37764;BME280;23602;51.084;7.090;2023-04-25T08:20:38;99750.66;;;8.94;100.00
37764;BME280;23602;51.084;7.090;2023-04-25T08:23:05;99748.63;;;8.63;100.00
37764;BME280;23602;51.084;7.090;2023-04-25T08:25:31;99753.56;;;8.40;100.00
37764;BME280;23602;51.084;7.090;2023-04-25T08:27:57;99761.00;;;8.31;100.00
37764;BME280;23602;51.084;7.090;2023-04-25T08:30:28;99761.75;;;8.25;100.00
37764;BME280;23602;51.084;7.090;2023-04-25T08:32:53;99764.00;;;8.21;100.00
37764;BME280;23602;51.084;7.090;2023-04-25T08:35:19;99765.66;;;8.22;100.00
37764;BME280;23602;51.084;7.090;2023-04-25T08:37:48;99762.56;;;8.19;100.00
37764;BME280;23602;51.084;7.090;2023-04-25T08:40:14;99781.91;;;8.14;100.00
37764;BME280;23602;51.084;7.090;2023-04-25T08:42:41;99778.41;;;8.07;100.00
37764;BME280;23602;51.084;7.090;2023-04-25T08:45:07;99789.91;;;8.01;100.00
37764;BME280;23602;51.084;7.090;2023-04-25T08:47:33;99795.66;;;7.98;100.00
37764;BME280;23602;51.084;7.090;2023-04-25T08:49:58;99794.25;;;8.02;100.00
37764;BME280;23602;51.084;7.090;2023-04-25T08:52:24;99794.47;;;8.14;100.00
37764;BME280;23602;51.084;7.090;2023-04-25T08:54:52;99801.16;;;8.31;100.00
37764;BME280;23602;51.084;7.090;2023-04-25T08:57:19;99797.44;;;8.65;100.00
37764;BME280;23602;51.084;7.090;2023-04-25T08:59:46;99796.19;;;9.00;100.00
37764;BME280;23602;51.084;7.090;2023-04-25T09:02:12;99801.22;;;9.67;100.00
37764;BME280;23602;51.084;7.090;2023-04-25T09:04:43;99793.53;;;10.53;100.00
37764;BME280;23602;51.084;7.090;2023-04-25T09:07:08;99786.88;;;11.29;100.00
37764;BME280;23602;51.084;7.090;2023-04-25T09:09:36;99788.00;;;11.40;100.00
37764;BME280;23602;51.084;7.090;2023-04-25T09:12:02;99794.41;;;11.03;100.00
37764;BME280;23602;51.084;7.090;2023-04-25T09:14:27;99810.13;;;10.50;100.00
37764;BME280;23602;51.084;7.090;2023-04-25T09:19:21;99816.63;;;9.85;100.00
37764;BME280;23602;51.084;7.090;2023-04-25T09:21:50;99819.16;;;9.73;100.00
37764;BME280;23602;51.084;7.090;2023-04-25T09:24:16;99822.22;;;9.77;100.00
37764;BME280;23602;51.084;7.090;2023-04-25T09:26:44;99826.16;;;9.81;100.00
37764;BME280;23602;51.084;7.090;2023-04-25T09:29:09;99827.81;;;10.26;100.00
37764;BME280;23602;51.084;7.090;2023-04-25T09:31:35;99818.91;;;10.88;100.00
37764;BME280;23602;51.084;7.090;2023-04-25T09:34:01;99818.75;;;11.08;100.00
37764;BME280;23602;51.084;7.090;2023-04-25T09:36:27;99828.03;;;10.87;100.00
37764;BME280;23602;51.084;7.090;2023-04-25T09:38:53;99830.91;;;10.61;100.00
37764;BME280;23602;51.084;7.090;2023-04-25T09:41:24;99836.47;;;10.28;100.00
37764;BME280;23602;51.084;7.090;2023-04-25T09:43:50;99837.81;;;9.99;100.00
37764;BME280;23602;51.084;7.090;2023-04-25T09:46:15;99841.59;;;9.85;100.00
37764;BME280;23602;51.084;7.090;2023-04-25T09:48:47;99841.69;;;10.23;100.00
37764;BME280;23602;51.084;7.090;2023-04-25T09:51:13;99839.59;;;10.88;100.00
37764;BME280;23602;51.084;7.090;2023-04-25T09:53:40;99832.41;;;11.67;100.00
37764;BME280;23602;51.084;7.090;2023-04-25T09:56:06;99827.47;;;12.19;88.81
37764;BME280;23602;51.084;7.090;2023-04-25T09:58:32;99818.72;;;12.53;83.81
37764;BME280;23602;51.084;7.090;2023-04-25T10:01:01;99830.06;;;12.96;81.39
37764;BME280;23602;51.084;7.090;2023-04-25T10:03:29;99831.69;;;12.97;81.68
37764;BME280;23602;51.084;7.090;2023-04-25T10:05:55;99835.19;;;12.86;71.38
37764;BME280;23602;51.084;7.090;2023-04-25T10:08:24;99843.94;;;12.70;85.62
37764;BME280;23602;51.084;7.090;2023-04-25T10:10:51;99838.22;;;12.78;74.59
37764;BME280;23602;51.084;7.090;2023-04-25T10:13:17;99852.88;;;12.71;80.73
37764;BME280;23602;51.084;7.090;2023-04-25T10:15:42;99852.41;;;12.85;90.41
37764;BME280;23602;51.084;7.090;2023-04-25T10:18:08;99850.56;;;12.56;90.12
37764;BME280;23602;51.084;7.090;2023-04-25T10:20:47;99865.00;;;12.32;100.00
37764;BME280;23602;51.084;7.090;2023-04-25T10:23:26;99867.88;;;12.00;100.00
37764;BME280;23602;51.084;7.090;2023-04-25T10:26:00;99873.28;;;11.82;100.00
37764;BME280;23602;51.084;7.090;2023-04-25T10:28:25;99876.97;;;11.63;100.00
37764;BME280;23602;51.084;7.090;2023-04-25T10:31:00;99873.06;;;11.41;100.00
37764;BME280;23602;51.084;7.090;2023-04-25T10:33:44;99878.78;;;11.02;100.00
37764;BME280;23602;51.084;7.090;2023-04-25T10:38:37;99885.41;;;10.74;100.00
37764;BME280;23602;51.084;7.090;2023-04-25T10:41:06;99886.41;;;10.73;100.00
37764;BME280;23602;51.084;7.090;2023-04-25T10:46:15;99885.13;;;10.51;100.00
37764;BME280;23602;51.084;7.090;2023-04-25T10:48:46;99885.78;;;10.47;100.00
37764;BME280;23602;51.084;7.090;2023-04-25T10:51:17;99886.97;;;10.51;98.76
37764;BME280;23602;51.084;7.090;2023-04-25T10:53:46;99888.34;;;10.66;100.00
37764;BME280;23602;51.084;7.090;2023-04-25T10:59:15;99886.13;;;10.57;100.00
37764;BME280;23602;51.084;7.090;2023-04-25T11:01:41;99891.97;;;10.47;100.00
37764;BME280;23602;51.084;7.090;2023-04-25T11:04:23;99889.16;;;10.29;100.00
37764;BME280;23602;51.084;7.090;2023-04-25T11:06:55;99890.84;;;10.17;100.00
37764;BME280;23602;51.084;7.090;2023-04-25T11:09:23;99885.06;;;10.20;100.00
37764;BME280;23602;51.084;7.090;2023-04-25T11:11:55;99891.84;;;10.29;100.00
37764;BME280;23602;51.084;7.090;2023-04-25T11:14:25;99886.59;;;10.47;92.76
37764;BME280;23602;51.084;7.090;2023-04-25T11:16:57;99898.00;;;10.74;100.00
37764;BME280;23602;51.084;7.090;2023-04-25T11:19:23;99891.38;;;10.76;100.00
37764;BME280;23602;51.084;7.090;2023-04-25T11:21:49;99894.22;;;10.82;100.00
37764;BME280;23602;51.084;7.090;2023-04-25T11:24:34;99892.31;;;10.89;100.00
37764;BME280;23602;51.084;7.090;2023-04-25T11:27:03;99886.47;;;10.98;97.60
37764;BME280;23602;51.084;7.090;2023-04-25T11:29:36;99891.19;;;11.03;89.04
37764;BME280;23602;51.084;7.090;2023-04-25T11:32:04;99883.78;;;11.23;97.45
37764;BME280;23602;51.084;7.090;2023-04-25T11:34:30;99887.13;;;11.43;87.14
37764;BME280;23602;51.084;7.090;2023-04-25T11:36:55;99884.81;;;11.65;92.73
37764;BME280;23602;51.084;7.090;2023-04-25T11:39:24;99889.28;;;11.95;91.53
37764;BME280;23602;51.084;7.090;2023-04-25T11:41:50;99880.16;;;12.15;83.24
37764;BME280;23602;51.084;7.090;2023-04-25T11:44:16;99881.13;;;12.20;73.71
37764;BME280;23602;51.084;7.090;2023-04-25T11:46:41;99879.81;;;12.41;78.76
37764;BME280;23602;51.084;7.090;2023-04-25T11:49:09;99880.53;;;12.66;77.28
37764;BME280;23602;51.084;7.090;2023-04-25T11:51:38;99869.88;;;12.71;68.31
37764;BME280;23602;51.084;7.090;2023-04-25T11:54:04;99872.69;;;12.76;60.84
37764;BME280;23602;51.084;7.090;2023-04-25T11:56:30;99871.16;;;12.80;63.89
37764;BME280;23602;51.084;7.090;2023-04-25T11:59:04;99874.13;;;12.90;64.53
37764;BME280;23602;51.084;7.090;2023-04-25T12:01:32;99875.97;;;12.78;67.95
37764;BME280;23602;51.084;7.090;2023-04-25T12:04:15;99872.91;;;12.75;70.71
37764;BME280;23602;51.084;7.090;2023-04-25T12:06:44;99883.00;;;12.20;70.48
37764;BME280;23602;51.084;7.090;2023-04-25T12:09:12;99882.19;;;11.83;73.43
37764;BME280;23602;51.084;7.090;2023-04-25T12:11:47;99887.50;;;11.71;69.56
37764;BME280;23602;51.084;7.090;2023-04-25T12:14:33;99877.69;;;11.95;87.42
37764;BME280;23602;51.084;7.090;2023-04-25T12:17:02;99884.59;;;11.91;69.10
37764;BME280;23602;51.084;7.090;2023-04-25T12:19:32;99884.19;;;12.24;83.26
37764;BME280;23602;51.084;7.090;2023-04-25T12:22:08;99883.75;;;12.27;73.06
37764;BME280;23602;51.084;7.090;2023-04-25T12:24:45;99894.13;;;12.23;67.12
37764;BME280;23602;51.084;7.090;2023-04-25T12:27:14;99893.50;;;11.91;66.02
37764;BME280;23602;51.084;7.090;2023-04-25T12:29:59;99904.09;;;11.86;75.20
37764;BME280;23602;51.084;7.090;2023-04-25T12:32:26;99908.44;;;11.69;80.35
37764;BME280;23602;51.084;7.090;2023-04-25T12:34:52;99903.63;;;11.47;74.09
37764;BME280;23602;51.084;7.090;2023-04-25T12:37:31;99922.91;;;11.19;89.14
37764;BME280;23602;51.084;7.090;2023-04-25T12:40:17;99927.91;;;10.91;91.62
37764;BME280;23602;51.084;7.090;2023-04-25T12:42:42;99934.84;;;10.67;100.00
37764;BME280;23602;51.084;7.090;2023-04-25T12:45:07;99929.59;;;10.41;94.35
37764;BME280;23602;51.084;7.090;2023-04-25T12:47:33;99939.19;;;10.24;100.00
37764;BME280;23602;51.084;7.090;2023-04-25T12:50:03;99939.19;;;10.10;100.00
37764;BME280;23602;51.084;7.090;2023-04-25T12:52:29;99940.03;;;10.04;100.00
37764;BME280;23602;51.084;7.090;2023-04-25T12:54:55;99945.84;;;9.82;100.00
37764;BME280;23602;51.084;7.090;2023-04-25T12:57:31;99959.94;;;9.71;100.00
37764;BME280;23602;51.084;7.090;2023-04-25T13:00:10;99960.97;;;9.63;100.00
37764;BME280;23602;51.084;7.090;2023-04-25T13:02:42;99963.88;;;9.55;100.00
37764;BME280;23602;51.084;7.090;2023-04-25T13:05:07;99955.41;;;9.51;100.00
37764;BME280;23602;51.084;7.090;2023-04-25T13:07:36;99959.94;;;9.44;100.00
37764;BME280;23602;51.084;7.090;2023-04-25T13:10:01;99973.75;;;9.28;100.00
37764;BME280;23602;51.084;7.090;2023-04-25T13:12:34;99983.88;;;9.20;100.00